createdAt,value
2018-10-16T00:01:24.421Z,90.40
2018-10-16T00:03:53.709Z,90.70
2018-10-16T00:06:22.807Z,90.80
2018-10-16T00:08:51.867Z,90.70
2018-10-16T00:11:20.874Z,90.50
2018-10-16T00:13:49.924Z,90.40
2018-10-16T00:16:19.065Z,90.40
2018-10-16T00:18:48.157Z,90.70
2018-10-16T00:21:17.279Z,90.70
2018-10-16T00:23:52.968Z,90.50
2018-10-16T00:26:22.017Z,88.90
2018-10-16T00:28:51.081Z,88.50
2018-10-16T00:31:20.121Z,87.90
2018-10-16T00:33:49.164Z,87.90
2018-10-16T00:36:18.182Z,88.20
2018-10-16T00:38:47.230Z,88.70
2018-10-16T00:41:16.341Z,89.00
2018-10-16T00:43:45.396Z,88.70
2018-10-16T00:46:14.560Z,89.20
2018-10-16T00:48:43.610Z,88.20
2018-10-16T00:51:12.677Z,87.70
2018-10-16T00:53:41.734Z,87.60
2018-10-16T00:56:10.776Z,88.70
2018-10-16T00:58:39.799Z,88.30
2018-10-16T01:01:08.848Z,89.00
2018-10-16T01:03:37.965Z,89.50
2018-10-16T01:06:07.025Z,89.60
2018-10-16T01:08:36.065Z,90.20
2018-10-16T01:11:08.246Z,90.90
2018-10-16T01:13:37.277Z,91.00
2018-10-16T01:16:06.598Z,90.90
2018-10-16T01:18:35.795Z,90.70
2018-10-16T01:21:05.122Z,91.00
2018-10-16T01:23:34.181Z,90.90
2018-10-16T01:26:03.779Z,90.30
2018-10-16T01:28:32.855Z,89.30
2018-10-16T01:31:01.921Z,89.40
2018-10-16T01:33:31.377Z,89.90
2018-10-16T01:36:00.494Z,90.30
2018-10-16T01:38:29.541Z,90.60
2018-10-16T01:40:58.661Z,90.80
2018-10-16T01:43:27.701Z,90.70
2018-10-16T01:45:56.775Z,91.30
2018-10-16T01:48:25.802Z,90.80
2018-10-16T01:50:54.855Z,90.60
2018-10-16T01:53:24.264Z,90.50
2018-10-16T01:55:53.495Z,90.70
2018-10-16T01:58:22.521Z,90.50
2018-10-16T02:00:51.612Z,90.60
2018-10-16T02:03:20.880Z,90.50
2018-10-16T02:05:49.955Z,90.70
2018-10-16T02:08:19.018Z,90.90
2018-10-16T02:10:49.383Z,90.50
2018-10-16T02:13:18.543Z,90.70
2018-10-16T02:15:47.583Z,90.90
2018-10-16T02:18:16.670Z,90.90
2018-10-16T02:20:45.707Z,90.90
2018-10-16T02:23:14.757Z,91.00
2018-10-16T02:25:43.795Z,91.10
2018-10-16T02:28:12.820Z,90.50
2018-10-16T02:30:41.845Z,90.30
2018-10-16T02:33:10.913Z,90.70
2018-10-16T02:35:40.034Z,90.60
2018-10-16T02:38:09.103Z,90.30
2018-10-16T02:40:38.148Z,90.40
2018-10-16T02:43:07.194Z,90.60
2018-10-16T02:45:36.221Z,90.90
2018-10-16T02:48:05.585Z,91.10
2018-10-16T02:50:34.617Z,91.00
2018-10-16T02:53:03.658Z,90.60
2018-10-16T02:55:33.758Z,90.80
2018-10-16T02:58:02.838Z,91.00
2018-10-16T03:00:31.870Z,91.30
2018-10-16T03:03:00.941Z,92.00
2018-10-16T03:05:29.994Z,91.90
2018-10-16T03:07:59.054Z,92.20
2018-10-16T03:10:29.617Z,92.20
2018-10-16T03:12:58.956Z,92.40
2018-10-16T03:15:28.099Z,92.30
2018-10-16T03:17:57.305Z,92.20
2018-10-16T03:20:26.375Z,91.70
2018-10-16T03:22:55.422Z,91.00
2018-10-16T03:25:24.465Z,91.20
2018-10-16T03:27:53.547Z,91.30
2018-10-16T03:30:22.642Z,91.00
2018-10-16T03:32:51.710Z,91.20
2018-10-16T03:35:20.776Z,91.70
2018-10-16T03:37:49.849Z,92.00
2018-10-16T03:40:18.912Z,92.60
2018-10-16T03:42:47.984Z,92.80
2018-10-16T03:45:17.038Z,92.90
2018-10-16T03:47:46.181Z,92.50
2018-10-16T03:50:15.341Z,92.10
2018-10-16T03:52:44.385Z,92.60
2018-10-16T03:55:13.442Z,92.70
2018-10-16T03:57:42.515Z,92.10
2018-10-16T04:00:12.165Z,92.10
2018-10-16T04:02:41.298Z,91.90
2018-10-16T04:05:10.322Z,90.90
2018-10-16T04:07:40.692Z,90.70
2018-10-16T04:10:09.776Z,91.40
2018-10-16T04:12:38.946Z,91.70
2018-10-16T04:15:09.506Z,91.90
2018-10-16T04:17:39.335Z,92.10
2018-10-16T04:20:08.380Z,92.30
2018-10-16T04:22:37.753Z,92.40
2018-10-16T04:25:07.014Z,92.60
2018-10-16T04:27:36.727Z,92.70
2018-10-16T04:30:06.823Z,92.90
2018-10-16T04:32:35.841Z,92.80
2018-10-16T04:35:12.980Z,92.60
2018-10-16T04:37:42.320Z,92.80
2018-10-16T04:40:11.601Z,93.20
2018-10-16T04:42:41.420Z,93.50
2018-10-16T04:45:11.819Z,93.60
2018-10-16T04:47:41.565Z,93.60
2018-10-16T04:50:11.545Z,93.40
2018-10-16T04:52:40.984Z,93.40
2018-10-16T04:55:10.054Z,93.60
2018-10-16T04:57:39.213Z,93.30
2018-10-16T05:00:09.182Z,93.20
2018-10-16T05:02:39.665Z,93.00
2018-10-16T05:05:13.822Z,92.70
2018-10-16T05:07:42.878Z,93.10
2018-10-16T05:10:13.139Z,93.20
2018-10-16T05:12:42.747Z,93.80
2018-10-16T05:15:18.858Z,93.70
2018-10-16T05:17:47.884Z,93.80
2018-10-16T05:20:16.948Z,93.70
2018-10-16T05:22:47.430Z,93.50
2018-10-16T05:25:16.489Z,93.30
2018-10-16T05:27:45.477Z,93.40
2018-10-16T05:30:22.609Z,93.60
2018-10-16T05:32:51.617Z,93.50
2018-10-16T05:35:20.649Z,93.30
2018-10-16T05:37:50.136Z,93.30
2018-10-16T05:40:19.262Z,93.50
2018-10-16T05:42:48.785Z,93.90
2018-10-16T05:45:17.851Z,94.00
2018-10-16T05:47:47.110Z,93.90
2018-10-16T05:50:16.163Z,93.70
2018-10-16T05:52:46.154Z,93.60
2018-10-16T05:55:15.213Z,93.50
2018-10-16T05:57:44.217Z,93.50
2018-10-16T06:00:24.831Z,93.80
2018-10-16T06:02:53.865Z,94.00
2018-10-16T06:05:22.949Z,94.00
2018-10-16T06:07:51.924Z,94.10
2018-10-16T06:10:20.973Z,94.20
2018-10-16T06:12:49.974Z,94.30
2018-10-16T06:15:19.018Z,94.60
2018-10-16T06:17:49.542Z,94.70
2018-10-16T06:20:18.590Z,94.40
2018-10-16T06:22:47.846Z,94.20
2018-10-16T06:25:18.232Z,94.40
2018-10-16T06:27:48.013Z,94.60
2018-10-16T06:30:18.551Z,94.60
2018-10-16T06:32:49.923Z,94.50
2018-10-16T06:35:18.978Z,94.40
2018-10-16T06:37:48.065Z,94.40
2018-10-16T06:40:17.154Z,94.30
2018-10-16T06:42:46.876Z,94.40
2018-10-16T06:45:17.022Z,94.30
2018-10-16T06:47:47.039Z,93.70
2018-10-16T06:50:17.439Z,94.00
2018-10-16T06:52:46.545Z,93.80
2018-10-16T06:55:16.861Z,93.80
2018-10-16T07:00:37.702Z,94.10
2018-10-16T07:03:06.718Z,94.00
2018-10-16T07:05:35.702Z,93.70
2018-10-16T07:08:04.735Z,93.50
2018-10-16T07:10:33.740Z,93.50
2018-10-16T07:13:03.245Z,93.70
2018-10-16T07:15:32.843Z,93.90
2018-10-16T07:18:02.290Z,94.00
2018-10-16T07:20:31.340Z,94.20
2018-10-16T07:23:00.321Z,94.50
2018-10-16T07:25:30.029Z,94.60
2018-10-16T07:27:59.825Z,94.60
2018-10-16T07:30:29.030Z,94.60
2018-10-16T07:32:58.046Z,94.80
2018-10-16T07:35:27.029Z,95.30
2018-10-16T07:37:56.090Z,95.40
2018-10-16T07:40:25.021Z,95.70
2018-10-16T07:42:54.077Z,95.60
2018-10-16T07:45:23.125Z,95.70
2018-10-16T07:47:52.166Z,95.50
2018-10-16T07:50:21.140Z,95.80
2018-10-16T07:52:50.170Z,95.30
2018-10-16T07:55:19.206Z,95.20
2018-10-16T07:57:48.236Z,95.40
2018-10-16T08:00:19.087Z,95.40
2018-10-16T08:02:48.161Z,95.00
2018-10-16T08:05:17.206Z,95.00
2018-10-16T08:07:46.227Z,95.20
2018-10-16T08:10:15.219Z,95.40
2018-10-16T08:12:44.266Z,95.40
2018-10-16T08:15:13.347Z,95.30
2018-10-16T08:17:42.459Z,94.90
2018-10-16T08:20:11.594Z,95.00
2018-10-16T08:22:40.614Z,94.40
2018-10-16T08:25:10.826Z,94.00
2018-10-16T08:27:39.892Z,93.90
2018-10-16T08:30:10.312Z,93.90
2018-10-16T08:32:39.437Z,94.10
2018-10-16T08:35:08.462Z,93.80
2018-10-16T08:39:53.102Z,94.10
2018-10-16T08:43:04.209Z,94.20
2018-10-16T08:45:44.539Z,95.30
2018-10-16T08:48:25.083Z,95.60
2018-10-16T08:51:05.451Z,95.80
2018-10-16T08:53:34.479Z,95.70
2018-10-16T08:56:03.542Z,95.20
2018-10-16T08:58:32.575Z,94.80
2018-10-16T09:01:01.590Z,94.60
2018-10-16T09:03:30.592Z,95.50
2018-10-16T09:05:59.818Z,95.00
2018-10-16T09:08:28.829Z,95.30
2018-10-16T09:10:57.856Z,95.20
2018-10-16T09:13:27.521Z,95.00
2018-10-16T09:15:56.581Z,94.80
2018-10-16T09:18:25.923Z,94.30
2018-10-16T09:20:55.855Z,94.00
2018-10-16T09:23:25.450Z,94.10
2018-10-16T09:25:54.597Z,94.20
2018-10-16T09:28:23.655Z,94.10
2018-10-16T09:30:54.058Z,94.20
2018-10-16T09:33:23.082Z,94.70
2018-10-16T09:35:52.076Z,95.00
2018-10-16T09:38:21.115Z,94.80
2018-10-16T09:40:50.143Z,94.30
2018-10-16T09:43:19.906Z,94.00
2018-10-16T09:45:48.929Z,94.00
2018-10-16T09:48:17.998Z,93.90
2018-10-16T09:50:47.055Z,94.20
2018-10-16T09:53:16.182Z,94.00
2018-10-16T09:55:45.302Z,94.10
2018-10-16T09:58:14.312Z,94.10
2018-10-16T10:00:48.728Z,94.20
2018-10-16T10:03:17.708Z,94.20
2018-10-16T10:05:46.777Z,94.20
2018-10-16T10:08:15.848Z,94.20
2018-10-16T10:10:44.921Z,94.30
2018-10-16T10:13:13.969Z,94.30
2018-10-16T10:15:43.160Z,94.40
2018-10-16T10:18:12.208Z,93.80
2018-10-16T10:20:41.238Z,93.00
2018-10-16T10:23:10.337Z,93.10
2018-10-16T10:25:39.332Z,92.90
2018-10-16T10:28:08.351Z,93.10
2018-10-16T10:30:37.388Z,93.20
2018-10-16T10:33:06.418Z,93.50
2018-10-16T10:35:35.631Z,93.50
2018-10-16T10:38:04.712Z,93.50
2018-10-16T10:40:34.653Z,93.50
2018-10-16T10:43:03.658Z,93.30
2018-10-16T10:45:32.695Z,93.40
2018-10-16T10:48:01.718Z,93.40
2018-10-16T10:50:31.015Z,93.10
2018-10-16T10:52:59.817Z,93.40
2018-10-16T10:55:28.880Z,93.40
2018-10-16T10:57:57.925Z,93.30
2018-10-16T11:00:26.959Z,93.30
2018-10-16T11:02:56.017Z,93.40
2018-10-16T11:05:25.104Z,93.30
2018-10-16T11:07:54.186Z,93.20
2018-10-16T11:10:23.238Z,93.40
2018-10-16T11:12:52.327Z,93.70
2018-10-16T11:15:21.386Z,93.90
2018-10-16T11:17:50.506Z,94.00
2018-10-16T11:20:19.572Z,93.90
2018-10-16T11:22:48.613Z,93.70
2018-10-16T11:25:17.638Z,93.20
2018-10-16T11:27:46.670Z,92.80
2018-10-16T11:30:16.546Z,93.10
2018-10-16T11:32:45.573Z,92.70
2018-10-16T11:35:15.101Z,92.90
2018-10-16T11:37:44.138Z,92.70
2018-10-16T11:40:13.185Z,92.90
2018-10-16T11:42:42.805Z,92.50
2018-10-16T11:45:11.881Z,92.00
2018-10-16T11:47:40.894Z,91.70
2018-10-16T11:50:11.095Z,91.60
2018-10-16T11:52:40.452Z,91.00
2018-10-16T11:55:10.119Z,91.00
2018-10-16T11:57:39.234Z,90.70
2018-10-16T12:00:11.178Z,90.30
2018-10-16T12:02:40.312Z,90.00
2018-10-16T12:05:09.242Z,90.00
2018-10-16T12:07:38.246Z,90.20
2018-10-16T12:10:07.297Z,90.00
2018-10-16T12:12:36.366Z,89.60
2018-10-16T12:15:05.947Z,90.00
2018-10-16T12:17:50.793Z,89.60
2018-10-16T12:20:22.870Z,89.50
2018-10-16T12:22:52.732Z,88.80
2018-10-16T12:25:21.714Z,89.50
2018-10-16T12:27:50.814Z,89.20
2018-10-16T12:30:19.850Z,89.60
2018-10-16T12:32:49.818Z,89.40
2018-10-16T12:35:18.839Z,89.80
2018-10-16T12:37:47.909Z,90.10
2018-10-16T12:40:16.993Z,90.10
2018-10-16T12:42:46.025Z,90.10
2018-10-16T12:45:15.277Z,89.90
2018-10-16T12:47:45.225Z,89.60
2018-10-16T12:50:14.330Z,89.70
2018-10-16T12:52:43.308Z,89.70
2018-10-16T12:55:12.379Z,89.70
2018-10-16T12:57:41.399Z,89.30
2018-10-16T13:00:10.481Z,89.30
2018-10-16T13:02:39.460Z,89.30
2018-10-16T13:05:08.542Z,89.10
2018-10-16T13:07:38.561Z,89.00
2018-10-16T13:10:10.748Z,89.50
2018-10-16T13:12:39.772Z,89.80
2018-10-16T13:15:10.375Z,89.90
2018-10-16T13:17:39.591Z,89.80
2018-10-16T13:20:10.465Z,90.00
2018-10-16T13:22:39.815Z,89.90
2018-10-16T13:25:10.271Z,89.30
2018-10-16T13:27:39.274Z,90.40
2018-10-16T13:30:11.508Z,89.90
2018-10-16T13:32:40.530Z,89.60
2018-10-16T13:35:11.644Z,89.60
2018-10-16T13:37:40.671Z,89.50
2018-10-16T13:40:10.525Z,89.90
2018-10-16T13:42:39.622Z,89.90
2018-10-16T13:45:09.890Z,89.80
2018-10-16T13:47:38.915Z,89.90
2018-10-16T13:50:10.707Z,90.10
2018-10-16T13:52:39.912Z,90.10
2018-10-16T13:55:09.923Z,90.20
2018-10-16T13:57:38.967Z,90.10
2018-10-16T14:00:12.625Z,90.30
2018-10-16T14:02:42.418Z,90.50
2018-10-16T14:05:11.502Z,90.40
2018-10-16T14:07:40.649Z,90.50
2018-10-16T14:10:10.710Z,90.50
2018-10-16T14:12:41.054Z,90.50
2018-10-16T14:15:10.814Z,90.50
2018-10-16T14:17:40.110Z,90.40
2018-10-16T14:20:10.413Z,90.40
2018-10-16T14:22:40.633Z,90.20
2018-10-16T14:25:11.016Z,90.20
2018-10-16T14:27:40.513Z,89.80
2018-10-16T14:30:11.302Z,90.00
2018-10-16T14:32:40.695Z,90.00
2018-10-16T14:35:10.514Z,90.20
2018-10-16T14:37:39.935Z,90.10
2018-10-16T14:40:10.930Z,90.20
2018-10-16T14:42:40.082Z,90.20
2018-10-16T14:45:10.289Z,90.30
2018-10-16T14:47:39.317Z,90.40
2018-10-16T14:50:09.243Z,90.50
2018-10-16T14:52:38.262Z,90.70
2018-10-16T14:55:07.263Z,90.70
2018-10-16T14:57:36.461Z,90.80
2018-10-16T15:00:07.511Z,90.90
2018-10-16T15:02:36.585Z,90.90
2018-10-16T15:05:06.317Z,91.10
2018-10-16T15:07:35.398Z,91.10
2018-10-16T15:10:04.872Z,91.20
2018-10-16T15:12:34.082Z,91.20
2018-10-16T15:15:03.718Z,91.40
2018-10-16T15:17:32.806Z,91.40
2018-10-16T15:20:01.858Z,91.50
2018-10-16T15:22:30.947Z,91.60
2018-10-16T15:24:59.971Z,91.70
2018-10-16T15:27:29.036Z,91.90
2018-10-16T15:29:58.102Z,92.10
2018-10-16T15:32:27.158Z,92.10
2018-10-16T15:34:56.194Z,92.00
2018-10-16T15:37:25.272Z,92.10
2018-10-16T15:39:54.322Z,92.20
2018-10-16T15:42:23.829Z,92.30
2018-10-16T15:44:52.873Z,92.30
2018-10-16T15:47:21.936Z,92.30
2018-10-16T15:49:50.985Z,92.50
2018-10-16T15:52:20.026Z,92.60
2018-10-16T15:54:49.055Z,92.60
2018-10-16T15:57:18.120Z,92.80
2018-10-16T15:59:47.203Z,93.00
2018-10-16T16:02:16.233Z,93.10
2018-10-16T16:04:45.304Z,93.10
2018-10-16T16:07:14.368Z,93.10
2018-10-16T16:09:43.435Z,93.20
2018-10-16T16:12:12.555Z,93.40
2018-10-16T16:14:41.549Z,93.50
2018-10-16T16:17:10.648Z,93.40
2018-10-16T16:19:39.697Z,93.60
2018-10-16T16:22:08.892Z,93.60
2018-10-16T16:24:37.951Z,93.70
2018-10-16T16:27:07.023Z,93.90
2018-10-16T16:29:36.098Z,94.00
2018-10-16T16:32:05.397Z,94.20
2018-10-16T16:34:35.648Z,94.30
2018-10-16T16:37:04.708Z,94.30
2018-10-16T16:39:33.792Z,94.50
2018-10-16T16:42:02.868Z,94.50
2018-10-16T16:44:32.035Z,94.60
2018-10-16T16:47:01.067Z,94.50
2018-10-16T16:49:30.103Z,94.60
2018-10-16T16:51:59.206Z,94.50
2018-10-16T16:54:28.321Z,94.70
2018-10-16T16:56:57.356Z,94.70
2018-10-16T16:59:26.637Z,94.80
2018-10-16T17:01:55.697Z,94.50
2018-10-16T17:04:24.922Z,94.60
2018-10-16T17:06:54.016Z,94.40
2018-10-16T17:09:23.116Z,94.70
2018-10-16T17:11:52.179Z,94.70
2018-10-16T17:14:21.225Z,94.70
2018-10-16T17:16:51.041Z,95.00
2018-10-16T17:19:23.841Z,95.00
2018-10-16T17:21:52.925Z,95.00
2018-10-16T17:24:22.819Z,95.00
2018-10-16T17:26:52.061Z,94.70
2018-10-16T17:29:21.090Z,94.80
2018-10-16T17:31:50.187Z,94.90
2018-10-16T17:34:19.223Z,94.60
2018-10-16T17:36:48.281Z,94.90
2018-10-16T17:39:17.328Z,95.20
2018-10-16T17:41:46.738Z,94.70
2018-10-16T17:44:16.159Z,94.80
2018-10-16T17:46:45.218Z,94.80
2018-10-16T17:49:14.245Z,94.10
2018-10-16T17:51:43.335Z,94.10
2018-10-16T17:54:12.438Z,94.50
2018-10-16T17:56:41.492Z,94.60
2018-10-16T17:59:10.537Z,94.60
2018-10-16T18:01:39.641Z,94.50
2018-10-16T18:04:09.055Z,94.60
2018-10-16T18:06:38.150Z,94.50
2018-10-16T18:09:09.336Z,94.30
2018-10-16T18:11:38.428Z,94.40
2018-10-16T18:14:08.255Z,94.80
2018-10-16T18:16:37.691Z,94.70
2018-10-16T18:19:07.398Z,94.60
2018-10-16T18:21:37.088Z,94.60
2018-10-16T18:24:06.431Z,94.30
2018-10-16T18:26:35.621Z,94.70
2018-10-16T18:29:04.801Z,94.70
2018-10-16T18:31:34.055Z,94.70
2018-10-16T18:34:03.160Z,95.10
2018-10-16T18:36:32.283Z,95.10
2018-10-16T18:39:01.387Z,95.30
2018-10-16T18:41:30.411Z,95.30
2018-10-16T18:43:59.494Z,95.10
2018-10-16T18:46:28.501Z,95.10
2018-10-16T18:48:57.626Z,95.30
2018-10-16T18:51:26.648Z,95.30
2018-10-16T18:53:55.777Z,95.30
2018-10-16T18:56:24.907Z,95.20
2018-10-16T18:58:53.986Z,95.70
2018-10-16T19:01:23.575Z,95.60
2018-10-16T19:03:52.684Z,95.40
2018-10-16T19:06:21.687Z,95.60
2018-10-16T19:08:50.833Z,95.20
2018-10-16T19:11:19.862Z,94.90
2018-10-16T19:13:48.963Z,94.80
2018-10-16T19:16:18.001Z,94.90
2018-10-16T19:18:47.090Z,95.40
2018-10-16T19:21:16.175Z,96.10
2018-10-16T19:23:45.209Z,96.50
2018-10-16T19:26:14.293Z,96.20
2018-10-16T19:28:43.383Z,96.10
2018-10-16T19:31:13.103Z,96.20
2018-10-16T19:33:42.176Z,96.40
2018-10-16T19:36:11.231Z,96.80
2018-10-16T19:38:40.340Z,97.00
2018-10-16T19:41:09.374Z,97.10
2018-10-16T19:43:38.463Z,97.00
2018-10-16T19:46:08.040Z,97.20
2018-10-16T19:48:38.210Z,97.40
2018-10-16T19:51:07.845Z,97.20
2018-10-16T19:53:40.110Z,96.90
2018-10-16T19:56:10.869Z,96.60
2018-10-16T19:58:40.847Z,96.60
2018-10-16T20:01:21.218Z,96.40
2018-10-16T20:03:55.336Z,96.20
2018-10-16T20:06:26.856Z,96.00
2018-10-16T20:08:57.599Z,95.90
2018-10-16T20:11:31.557Z,96.40
2018-10-16T20:14:00.927Z,96.90
2018-10-16T20:16:29.932Z,96.90
2018-10-16T20:18:59.053Z,96.60
2018-10-16T20:21:29.655Z,96.60
2018-10-16T20:23:58.735Z,96.30
2018-10-16T20:26:27.826Z,96.20
2018-10-16T20:28:56.982Z,96.50
2018-10-16T20:31:26.079Z,96.60
2018-10-16T20:33:55.291Z,96.30
2018-10-16T20:36:24.396Z,96.30
2018-10-16T20:38:53.453Z,96.20
2018-10-16T20:41:22.535Z,96.30
2018-10-16T20:43:51.646Z,96.40
2018-10-16T20:46:20.745Z,96.70
2018-10-16T20:48:49.862Z,96.90
2018-10-16T20:51:18.913Z,96.80
2018-10-16T20:53:47.986Z,96.70
2018-10-16T20:56:17.071Z,96.80
2018-10-16T20:58:46.975Z,96.80
2018-10-16T21:01:17.179Z,96.70
2018-10-16T21:03:46.544Z,96.60
2018-10-16T21:06:15.846Z,96.60
2018-10-16T21:08:44.675Z,96.40
2018-10-16T21:11:13.966Z,96.70
2018-10-16T21:13:43.034Z,96.80
2018-10-16T21:16:14.029Z,96.80
2018-10-16T21:18:43.720Z,96.70
2018-10-16T21:21:12.823Z,96.10
2018-10-16T21:23:41.851Z,95.60
2018-10-16T21:26:10.913Z,96.10
2018-10-16T21:28:39.962Z,96.10
2018-10-16T21:31:09.064Z,96.10
2018-10-16T21:33:38.074Z,95.90
2018-10-16T21:36:07.113Z,95.90
2018-10-16T21:38:36.255Z,96.10
2018-10-16T21:41:05.305Z,96.50
2018-10-16T21:43:34.347Z,97.20
2018-10-16T21:46:03.356Z,97.30
2018-10-16T21:48:32.364Z,97.30
2018-10-16T21:51:01.402Z,97.40
2018-10-16T21:53:30.406Z,97.60
2018-10-16T21:55:59.411Z,97.50
2018-10-16T21:58:28.656Z,97.80
2018-10-16T22:01:03.164Z,98.00
2018-10-16T22:03:32.178Z,97.90
2018-10-16T22:06:01.227Z,98.20
2018-10-16T22:08:30.260Z,98.20
2018-10-16T22:10:59.362Z,98.00
2018-10-16T22:13:28.391Z,98.00
2018-10-16T22:15:57.420Z,97.80
2018-10-16T22:18:26.475Z,97.90
2018-10-16T22:20:55.526Z,98.00
2018-10-16T22:23:24.549Z,98.10
2018-10-16T22:25:53.559Z,98.00
2018-10-16T22:28:22.598Z,97.90
2018-10-16T22:30:51.604Z,97.60
2018-10-16T22:33:20.619Z,97.40
2018-10-16T22:35:49.609Z,97.60
2018-10-16T22:38:18.662Z,97.80
2018-10-16T22:40:47.714Z,97.50
2018-10-16T22:43:16.862Z,97.40
2018-10-16T22:45:45.789Z,97.10
2018-10-16T22:48:14.873Z,96.70
2018-10-16T22:50:43.928Z,96.30
2018-10-16T22:53:13.072Z,96.40
2018-10-16T22:55:42.012Z,96.60
2018-10-16T22:58:11.028Z,96.60
2018-10-16T23:00:40.087Z,96.90
2018-10-16T23:03:09.183Z,97.10
2018-10-16T23:05:38.212Z,97.10
2018-10-16T23:08:07.265Z,96.60
2018-10-16T23:10:36.252Z,96.80
2018-10-16T23:13:06.804Z,97.00
2018-10-16T23:15:36.063Z,96.90
2018-10-16T23:18:05.807Z,96.50
2018-10-16T23:20:34.882Z,96.20
2018-10-16T23:23:03.879Z,95.90
2018-10-16T23:25:32.910Z,96.20
2018-10-16T23:28:02.158Z,97.50
2018-10-16T23:30:31.160Z,97.80
2018-10-16T23:33:00.185Z,97.40
2018-10-16T23:35:29.228Z,96.70
2018-10-16T23:37:58.258Z,96.40
2018-10-16T23:40:27.256Z,96.50
2018-10-16T23:42:56.285Z,96.90
2018-10-16T23:45:25.265Z,97.20
2018-10-16T23:47:54.274Z,97.30
2018-10-16T23:50:23.259Z,97.40
2018-10-16T23:52:52.324Z,97.40
2018-10-16T23:55:21.345Z,97.20
2018-10-16T23:57:50.323Z,97.10
